Time;durP1;ratioP1;P1;durP2;ratioP2;P2;SDS_P1;SDS_P2;PMS_P1;PMS_P2;Temp;Humidity;BMP_temperature;BMP_pressure;BME280_temperature;BME280_humidity;BME280_pressure;Samples;Min_cycle;Max_cycle;Signal;HPM_P1;HPM_P2
2021/09/23 00:00:27;;;;;;;3.00;1.93;;;17.70;77.60;;;;;;10490191;28;20217;-67
2021/09/23 00:05:51;;;;;;;3.00;2.00;;;17.70;77.60;;;;;;10492368;28;20196;-67
2021/09/23 00:11:13;;;;;;;2.73;1.97;;;17.70;77.50;;;;;;10488749;28;20201;-67
2021/09/23 00:16:35;;;;;;;1.80;1.70;;;17.70;77.50;;;;;;10476733;28;20836;-67
2021/09/23 00:21:59;;;;;;;2.10;1.90;;;17.70;77.50;;;;;;10494514;28;20209;-67
2021/09/23 00:27:21;;;;;;;2.40;1.97;;;17.70;77.50;;;;;;10454297;28;20197;-67
2021/09/23 00:32:43;;;;;;;1.90;1.80;;;17.70;77.40;;;;;;10457833;28;20588;-67
2021/09/23 00:38:06;;;;;;;2.53;2.10;;;17.70;77.40;;;;;;10493150;28;20212;-68
2021/09/23 00:43:28;;;;;;;2.03;1.90;;;17.70;77.40;;;;;;10477896;28;20708;-68
2021/09/23 00:48:51;;;;;;;2.23;1.80;;;17.70;77.60;;;;;;10497195;28;20230;-67
2021/09/23 00:54:14;;;;;;;2.43;2.23;;;17.70;77.40;;;;;;10504739;28;20192;-67
2021/09/23 00:59:37;;;;;;;1.90;1.80;;;17.70;77.30;;;;;;10491296;28;20557;-67
2021/09/23 01:04:59;;;;;;;2.83;1.93;;;17.70;77.40;;;;;;10490114;28;20914;-67
2021/09/23 01:10:22;;;;;;;3.97;2.33;;;17.70;77.60;;;;;;10491185;28;20215;-67
2021/09/23 01:15:45;;;;;;;1.90;1.80;;;17.70;77.30;;;;;;10492137;28;20196;-67
2021/09/23 01:21:08;;;;;;;2.97;2.13;;;17.70;77.30;;;;;;10491864;28;20728;-67
2021/09/23 01:26:30;;;;;;;3.07;2.17;;;17.70;77.30;;;;;;10491718;28;20199;-67
2021/09/23 01:31:53;;;;;;;2.77;2.30;;;17.70;77.30;;;;;;10491399;28;20672;-67
2021/09/23 01:37:17;;;;;;;2.53;2.10;;;17.70;77.50;;;;;;10478021;23;20236;-69
2021/09/23 01:42:39;;;;;;;1.87;1.77;;;17.70;77.30;;;;;;10407786;28;20224;-68
2021/09/23 01:48:01;;;;;;;2.20;2.00;;;17.70;77.30;;;;;;10409364;28;20583;-68
2021/09/23 01:53:25;;;;;;;2.37;1.97;;;17.70;77.30;;;;;;10408400;28;20202;-68
2021/09/23 01:58:47;;;;;;;2.40;2.10;;;17.70;77.30;;;;;;10399626;28;20226;-70
2021/09/23 02:04:09;;;;;;;2.20;2.00;;;17.70;77.40;;;;;;10409152;28;20213;-68
2021/09/23 02:09:33;;;;;;;2.50;2.30;;;17.70;77.40;;;;;;10412230;28;20236;-65
2021/09/23 02:14:55;;;;;;;2.20;2.00;;;17.70;77.20;;;;;;10411476;28;20254;-68
2021/09/23 02:20:18;;;;;;;2.30;2.10;;;17.70;77.30;;;;;;10417376;28;20733;-68
2021/09/23 02:25:41;;;;;;;2.20;2.00;;;17.70;77.40;;;;;;10402806;28;20613;-68
2021/09/23 02:31:03;;;;;;;2.20;2.00;;;17.70;77.20;;;;;;10398345;28;20566;-69
2021/09/23 02:36:25;;;;;;;2.60;2.17;;;17.70;77.20;;;;;;10415993;28;20228;-71
2021/09/23 02:41:49;;;;;;;2.20;2.00;;;17.70;77.30;;;;;;10415098;28;20221;-68
2021/09/23 02:47:11;;;;;;;2.53;2.30;;;17.70;77.20;;;;;;10416644;28;20222;-69
2021/09/23 02:52:33;;;;;;;2.27;2.07;;;17.70;77.00;;;;;;10410360;28;20682;-68
2021/09/23 02:57:57;;;;;;;2.03;1.80;;;17.70;77.10;;;;;;10416749;28;20225;-69
2021/09/23 03:03:19;;;;;;;2.53;1.93;;;17.70;77.00;;;;;;10413499;28;20228;-70
2021/09/23 03:08:41;;;;;;;2.20;1.90;;;17.70;77.00;;;;;;10415529;28;20244;-69
2021/09/23 03:14:05;;;;;;;2.20;1.97;;;17.70;76.90;;;;;;10376333;28;20190;-68
2021/09/23 03:19:27;;;;;;;2.87;2.03;;;17.70;76.90;;;;;;10374248;28;20699;-69
2021/09/23 03:24:49;;;;;;;3.60;2.40;;;17.70;76.90;;;;;;10394058;28;20544;-68
2021/09/23 03:30:13;;;;;;;1.97;1.87;;;17.70;76.80;;;;;;10414809;28;20567;-69
2021/09/23 03:35:36;;;;;;;2.57;2.27;;;17.70;76.80;;;;;;10405888;28;20218;-68
2021/09/23 03:40:58;;;;;;;2.17;1.97;;;17.70;76.80;;;;;;10415529;28;20232;-68
2021/09/23 03:46:22;;;;;;;2.97;2.60;;;17.70;76.80;;;;;;10407148;28;20241;-68
2021/09/23 03:51:44;;;;;;;3.43;2.40;;;17.70;76.80;;;;;;10373878;28;20198;-70
2021/09/23 03:57:06;;;;;;;5.53;2.33;;;17.70;76.80;;;;;;10399482;28;20218;-68
2021/09/23 04:02:29;;;;;;;2.23;2.03;;;17.70;76.80;;;;;;10407740;28;20222;-68
2021/09/23 04:07:51;;;;;;;2.83;2.17;;;17.70;76.80;;;;;;10390723;28;20598;-68
2021/09/23 04:13:14;;;;;;;3.33;2.20;;;17.70;76.90;;;;;;10392648;28;20567;-69
2021/09/23 04:18:37;;;;;;;3.17;2.23;;;17.70;77.10;;;;;;10412957;28;20300;-68
2021/09/23 04:23:59;;;;;;;2.57;2.20;;;17.70;77.00;;;;;;10412991;28;20213;-69
2021/09/23 04:29:22;;;;;;;2.33;2.07;;;17.70;77.20;;;;;;10412098;28;20225;-68
2021/09/23 04:34:45;;;;;;;2.33;2.10;;;17.70;77.10;;;;;;10412209;28;20198;-68
2021/09/23 04:40:08;;;;;;;2.67;2.17;;;17.70;77.20;;;;;;10403827;28;20229;-69
2021/09/23 04:45:30;;;;;;;2.67;2.20;;;17.70;77.30;;;;;;10411663;28;20705;-69
2021/09/23 04:50:54;;;;;;;2.87;2.27;;;17.70;77.10;;;;;;10412122;28;20575;-69
2021/09/23 04:56:16;;;;;;;2.57;2.30;;;17.70;77.20;;;;;;10408521;28;20217;-71
2021/09/23 05:01:38;;;;;;;2.27;1.90;;;17.70;77.10;;;;;;10411199;28;20217;-47
2021/09/23 05:07:01;;;;;;;2.20;2.00;;;17.70;76.90;;;;;;10411458;28;20708;-51
2021/09/23 05:12:23;;;;;;;2.63;2.10;;;17.70;77.00;;;;;;10410873;28;20209;-51
2021/09/23 05:17:46;;;;;;;2.33;2.03;;;17.70;77.00;;;;;;10411041;28;20218;-51
2021/09/23 05:23:09;;;;;;;2.57;1.93;;;17.70;77.10;;;;;;10410348;28;20221;-52
2021/09/23 05:28:31;;;;;;;2.10;1.90;;;17.70;77.10;;;;;;10410433;28;20214;-49
2021/09/23 05:33:54;;;;;;;2.20;1.87;;;17.70;77.10;;;;;;10406845;28;20205;-48
2021/09/23 05:39:18;;;;;;;1.90;1.70;;;17.70;77.20;;;;;;10401598;28;20639;-51
2021/09/23 05:44:40;;;;;;;2.03;1.83;;;17.70;77.20;;;;;;10410543;28;20625;-48
2021/09/23 05:50:02;;;;;;;2.40;2.03;;;17.70;77.20;;;;;;10388743;28;20225;-48
2021/09/23 05:55:26;;;;;;;2.00;1.77;;;17.70;77.20;;;;;;10399453;28;20201;-48
2021/09/23 06:00:48;;;;;;;2.00;1.80;;;17.70;77.20;;;;;;10410246;28;20213;-54
2021/09/23 06:06:10;;;;;;;2.17;1.97;;;17.70;77.20;;;;;;10401078;28;20232;-51
2021/09/23 06:11:37;;;;;;;2.17;1.90;;;17.70;77.20;;;;;;10404804;28;20579;-53
2021/09/23 06:16:59;;;;;;;3.17;2.87;;;17.70;77.20;;;;;;10405699;28;20599;-49
2021/09/23 06:22:22;;;;;;;3.53;3.13;;;17.70;76.90;;;;;;10401762;28;20221;-49
2021/09/23 06:27:45;;;;;;;5.30;3.97;;;17.70;77.00;;;;;;10390142;28;20226;-49
2021/09/23 06:33:07;;;;;;;7.40;5.43;;;17.70;76.80;;;;;;10381155;28;20195;-48
2021/09/23 06:38:30;;;;;;;9.00;7.27;;;17.70;76.60;;;;;;10402096;28;20248;-49
2021/09/23 06:43:54;;;;;;;9.60;8.17;;;17.70;76.40;;;;;;10399645;28;20210;-51
2021/09/23 06:49:16;;;;;;;10.47;8.17;;;17.60;75.90;;;;;;10404069;28;20754;-50
2021/09/23 06:54:39;;;;;;;9.87;8.80;;;17.60;76.00;;;;;;10410413;28;20189;-51
2021/09/23 07:00:03;;;;;;;13.50;9.77;;;17.60;75.80;;;;;;10414756;28;20879;-52
2021/09/23 07:05:25;;;;;;;13.50;9.67;;;17.60;75.60;;;;;;10414985;28;20690;-51
2021/09/23 07:10:49;;;;;;;12.53;9.07;;;17.60;75.50;;;;;;10399492;28;20579;-47
2021/09/23 07:16:13;;;;;;;9.90;8.67;;;17.60;75.60;;;;;;10415615;28;20696;-47
2021/09/23 07:21:35;;;;;;;13.63;9.63;;;17.60;75.40;;;;;;10415401;28;20218;-49
2021/09/23 07:26:57;;;;;;;12.50;9.47;;;17.60;75.40;;;;;;10415113;28;20733;-50
2021/09/23 07:32:22;;;;;;;11.97;9.27;;;17.60;75.80;;;;;;10401047;28;20205;-51
2021/09/23 07:37:44;;;;;;;10.93;9.07;;;17.60;75.10;;;;;;10403152;28;20321;-51
2021/09/23 07:43:06;;;;;;;12.60;9.80;;;17.60;75.10;;;;;;10385274;28;20222;-54
2021/09/23 07:48:30;;;;;;;12.57;9.63;;;17.60;75.20;;;;;;10413736;28;20226;-51
2021/09/23 07:53:52;;;;;;;11.53;9.13;;;17.60;75.10;;;;;;10413267;28;20198;-49
2021/09/23 07:59:14;;;;;;;13.13;8.90;;;17.60;75.30;;;;;;10411640;28;20301;-56
2021/09/23 08:04:37;;;;;;;11.47;8.60;;;17.60;75.00;;;;;;10411644;28;20221;-47
2021/09/23 08:09:59;;;;;;;9.67;8.03;;;17.60;75.20;;;;;;10412417;28;20236;-53
2021/09/23 08:15:22;;;;;;;12.80;8.17;;;17.60;75.30;;;;;;10413408;28;20186;-55
2021/09/23 08:20:45;;;;;;;12.27;8.63;;;17.60;75.30;;;;;;10412368;28;20194;-53
2021/09/23 08:26:07;;;;;;;10.97;8.23;;;17.60;75.30;;;;;;10412847;28;20224;-52
2021/09/23 08:31:29;;;;;;;9.57;7.93;;;17.60;75.50;;;;;;10411376;28;20194;-47
2021/09/23 08:36:53;;;;;;;10.50;7.63;;;17.60;75.30;;;;;;10411583;28;20602;-49
2021/09/23 08:42:15;;;;;;;8.83;6.73;;;17.60;75.30;;;;;;10409646;28;20229;-56
2021/09/23 08:47:38;;;;;;;8.37;6.87;;;17.60;75.30;;;;;;10397083;28;20234;-51
2021/09/23 08:53:01;;;;;;;10.00;7.27;;;17.60;75.30;;;;;;10409680;28;20273;-61
2021/09/23 08:58:24;;;;;;;8.93;7.30;;;17.60;75.40;;;;;;10411520;28;20229;-56
2021/09/23 09:03:47;;;;;;;9.87;6.97;;;17.60;75.70;;;;;;10387010;28;20210;-57
2021/09/23 09:09:19;;;;;;;9.93;6.33;;;17.60;75.80;;;;;;10442253;22;20236;-54
2021/09/23 09:14:42;;;;;;;6.70;5.57;;;17.60;75.90;;;;;;10410381;28;20190;-56
2021/09/23 09:20:07;;;;;;;6.27;4.50;;;17.70;76.00;;;;;;10411496;28;20217;-53
2021/09/23 09:25:30;;;;;;;5.43;4.27;;;17.70;76.10;;;;;;10405844;28;20211;-51
2021/09/23 09:30:56;;;;;;;4.83;3.83;;;17.70;76.10;;;;;;10398431;28;20202;-56
2021/09/23 09:36:31;;;;;;;6.43;4.53;;;17.70;76.20;;;;;;10394244;28;20218;-54
2021/09/23 09:41:55;;;;;;;6.23;3.40;;;17.70;76.20;;;;;;10386350;28;20224;-54
2021/09/23 09:47:26;;;;;;;8.57;3.70;;;17.70;76.20;;;;;;10421092;28;20371;-51
2021/09/23 09:52:56;;;;;;;5.47;3.30;;;17.70;76.30;;;;;;10410524;28;20193;-49
2021/09/23 09:58:23;;;;;;;3.63;2.90;;;17.70;76.40;;;;;;10405682;28;20223;-51
2021/09/23 10:03:45;;;;;;;4.27;3.23;;;17.70;76.40;;;;;;10407400;28;20209;-48
2021/09/23 10:09:08;;;;;;;6.30;2.90;;;17.70;76.40;;;;;;10406771;28;20233;-53
2021/09/23 10:14:34;;;;;;;3.87;2.50;;;17.70;76.50;;;;;;10398362;28;20190;-48
2021/09/23 10:19:57;;;;;;;4.87;2.83;;;17.70;76.60;;;;;;10411020;28;20214;-52
2021/09/23 10:25:23;;;;;;;2.57;2.17;;;17.70;76.60;;;;;;10411156;28;20221;-53
2021/09/23 10:30:47;;;;;;;4.30;2.43;;;17.70;76.60;;;;;;10415533;28;20778;-48
2021/09/23 10:36:10;;;;;;;3.47;2.33;;;17.70;76.60;;;;;;10421472;28;20221;-49
2021/09/23 10:41:36;;;;;;;3.00;2.57;;;17.70;76.60;;;;;;10410392;28;20217;-48
2021/09/23 10:47:00;;;;;;;3.00;2.53;;;17.70;76.60;;;;;;10378883;28;20222;-52
2021/09/23 10:52:25;;;;;;;4.70;2.90;;;17.70;76.60;;;;;;10397693;28;20582;-50
2021/09/23 10:57:48;;;;;;;4.10;2.60;;;17.70;76.70;;;;;;10376162;28;20299;-50
2021/09/23 11:03:12;;;;;;;4.10;2.50;;;17.70;76.70;;;;;;10409340;28;20683;-47
2021/09/23 11:08:38;;;;;;;4.20;2.47;;;17.60;76.70;;;;;;10416667;28;20230;-47
2021/09/23 11:14:02;;;;;;;3.80;2.47;;;17.70;76.70;;;;;;10422027;28;20205;-54
2021/09/23 11:19:26;;;;;;;3.60;2.20;;;17.70;76.70;;;;;;10389238;28;20233;-48
2021/09/23 11:24:50;;;;;;;6.33;2.50;;;17.70;76.90;;;;;;10375199;28;20683;-51
2021/09/23 11:30:15;;;;;;;2.80;2.23;;;17.60;76.80;;;;;;10388913;28;20218;-49
2021/09/23 11:35:41;;;;;;;2.97;2.40;;;17.70;77.00;;;;;;10414122;28;20202;-53
2021/09/23 11:41:03;;;;;;;4.50;2.50;;;17.70;77.20;;;;;;10411537;28;20801;-68
2021/09/23 11:46:32;;;;;;;3.00;2.53;;;17.70;77.20;;;;;;10438182;28;20221;-68
2021/09/23 11:51:57;;;;;;;3.20;2.70;;;17.70;77.20;;;;;;10409391;28;20328;-68
2021/09/23 11:57:25;;;;;;;4.77;2.40;;;17.70;77.10;;;;;;10385597;28;20627;-68
2021/09/23 12:02:56;;;;;;;3.70;2.83;;;17.70;77.20;;;;;;10368346;28;20218;-68
2021/09/23 12:08:21;;;;;;;3.97;2.40;;;17.70;77.10;;;;;;10368482;28;20226;-69
2021/09/23 12:13:45;;;;;;;2.53;2.20;;;17.70;77.10;;;;;;10378204;28;20206;-68
2021/09/23 12:19:16;;;;;;;3.13;2.27;;;17.70;77.20;;;;;;10378653;28;20606;-68
2021/09/23 12:24:40;;;;;;;3.80;2.50;;;17.70;77.10;;;;;;10410942;28;20222;-69
2021/09/23 12:30:03;;;;;;;3.57;2.63;;;17.70;77.50;;;;;;10418584;28;20642;-70
2021/09/23 12:35:25;;;;;;;2.93;2.37;;;17.70;77.30;;;;;;10410486;28;20709;-68
2021/09/23 12:40:48;;;;;;;2.27;2.07;;;17.70;77.40;;;;;;10396918;28;20198;-69
2021/09/23 12:46:13;;;;;;;3.47;2.40;;;17.70;77.20;;;;;;10387725;28;20613;-66
2021/09/23 12:51:36;;;;;;;3.37;2.27;;;17.70;77.00;;;;;;10416830;28;20194;-67
2021/09/23 12:57:06;;;;;;;3.37;2.20;;;17.70;76.80;;;;;;10411431;28;20591;-68
2021/09/23 13:02:28;;;;;;;2.90;2.57;;;17.80;76.80;;;;;;10398186;28;20210;-68
2021/09/23 13:07:52;;;;;;;2.37;2.00;;;17.80;76.70;;;;;;10370362;28;20277;-67
2021/09/23 13:13:16;;;;;;;3.60;2.53;;;17.80;76.70;;;;;;10389311;28;20201;-68
2021/09/23 13:18:38;;;;;;;3.37;2.07;;;17.80;76.70;;;;;;10414343;28;20213;-65
2021/09/23 13:24:00;;;;;;;3.60;2.23;;;17.80;76.70;;;;;;10385798;28;20311;-66
2021/09/23 13:29:23;;;;;;;4.17;2.10;;;17.90;76.80;;;;;;10369561;28;20706;-66
2021/09/23 13:34:45;;;;;;;5.03;2.00;;;17.90;76.80;;;;;;10383472;28;20190;-69
2021/09/23 13:40:10;;;;;;;3.93;2.20;;;17.90;76.90;;;;;;10412072;28;20241;-67
2021/09/23 13:45:34;;;;;;;3.33;2.13;;;17.90;77.00;;;;;;10410021;28;20218;-69
2021/09/23 13:50:58;;;;;;;2.17;1.93;;;17.90;77.10;;;;;;10436032;28;20197;-67
2021/09/23 13:56:20;;;;;;;5.43;2.17;;;18.00;77.10;;;;;;10450754;28;20691;-68
2021/09/23 14:01:44;;;;;;;3.57;2.27;;;18.00;77.10;;;;;;10429040;28;20197;-67
2021/09/23 14:07:06;;;;;;;2.63;2.20;;;17.90;77.10;;;;;;10409099;28;20238;-68
2021/09/23 14:12:28;;;;;;;3.33;2.20;;;18.00;77.10;;;;;;10406622;28;20586;-68
2021/09/23 14:17:52;;;;;;;3.80;2.00;;;18.00;77.10;;;;;;10372469;28;20226;-69
2021/09/23 14:23:14;;;;;;;2.63;2.20;;;18.00;77.10;;;;;;10441999;28;20224;-67
2021/09/23 14:28:36;;;;;;;3.77;1.97;;;18.00;77.00;;;;;;10450414;28;20217;-67
2021/09/23 14:34:00;;;;;;;5.07;2.20;;;17.90;77.00;;;;;;10416626;28;20198;-67
2021/09/23 14:39:22;;;;;;;3.90;2.90;;;17.90;77.00;;;;;;10406893;28;20594;-67
2021/09/23 14:44:44;;;;;;;3.07;2.10;;;17.90;77.00;;;;;;10409762;28;20218;-65
2021/09/23 14:50:09;;;;;;;3.03;1.90;;;17.90;77.00;;;;;;10446703;28;20220;-68
2021/09/23 14:55:33;;;;;;;3.80;2.40;;;17.90;77.00;;;;;;10369041;28;20186;-67
2021/09/23 15:00:55;;;;;;;2.80;2.10;;;17.80;77.00;;;;;;10369478;28;20209;-67
2021/09/23 15:06:18;;;;;;;3.07;2.30;;;17.90;77.10;;;;;;10368777;28;20229;-67
2021/09/23 15:11:41;;;;;;;2.77;2.30;;;17.90;77.20;;;;;;10491508;23;20727;-68
2021/09/23 15:17:04;;;;;;;3.03;2.27;;;17.80;77.10;;;;;;10487416;28;20402;-69
2021/09/23 15:22:28;;;;;;;3.10;1.90;;;17.80;77.30;;;;;;10455109;28;20217;-70
2021/09/23 15:27:51;;;;;;;2.77;2.30;;;17.80;77.20;;;;;;10457186;28;20209;-69
2021/09/23 15:33:13;;;;;;;2.53;1.73;;;17.80;77.30;;;;;;10459710;28;20716;-70
2021/09/23 15:38:37;;;;;;;2.70;1.70;;;17.80;77.40;;;;;;10456432;28;20221;-69
2021/09/23 15:44:00;;;;;;;2.90;2.10;;;17.80;77.30;;;;;;10455295;28;20213;-69
2021/09/23 15:49:22;;;;;;;4.33;2.37;;;17.80;77.30;;;;;;10455273;28;20224;-70
2021/09/23 15:54:46;;;;;;;3.43;2.23;;;17.80;77.40;;;;;;10456047;28;20678;-70
2021/09/23 16:00:10;;;;;;;3.07;2.30;;;17.80;78.00;;;;;;10454417;28;20221;-70
2021/09/23 16:05:48;;;;;;;2.97;2.00;;;17.80;77.50;;;;;;10613316;27;20470;-67
2021/09/23 16:11:11;;;;;;;3.77;2.23;;;17.80;77.50;;;;;;10592033;28;20944;-64
2021/09/23 16:16:33;;;;;;;4.23;2.33;;;17.80;77.50;;;;;;10568127;28;20583;-65
2021/09/23 16:21:56;;;;;;;3.47;2.13;;;17.80;77.50;;;;;;10567816;28;20285;-64
2021/09/23 16:27:19;;;;;;;3.07;2.10;;;17.80;77.50;;;;;;10568281;28;20202;-64
2021/09/23 16:32:41;;;;;;;2.73;2.13;;;17.80;77.50;;;;;;10567815;28;20207;-63
2021/09/23 16:38:05;;;;;;;4.43;2.23;;;17.80;77.50;;;;;;10569389;28;20198;-64
2021/09/23 16:43:27;;;;;;;2.53;2.00;;;17.80;77.50;;;;;;10568441;28;20219;-64
2021/09/23 16:48:49;;;;;;;2.87;2.07;;;17.80;77.50;;;;;;10577316;28;20195;-65
2021/09/23 16:54:14;;;;;;;3.73;2.00;;;17.80;77.50;;;;;;10558025;28;20188;-65
2021/09/23 16:59:36;;;;;;;4.00;2.40;;;17.80;77.50;;;;;;10566710;28;20211;-65
2021/09/23 17:04:59;;;;;;;4.83;2.47;;;17.80;77.50;;;;;;10568289;28;20305;-65
2021/09/23 17:10:23;;;;;;;2.83;2.00;;;17.70;77.50;;;;;;10567218;28;20208;-65
2021/09/23 17:15:45;;;;;;;2.57;1.87;;;17.80;77.60;;;;;;10546177;28;20258;-65
2021/09/23 17:21:07;;;;;;;3.40;2.10;;;17.70;77.50;;;;;;10574751;28;20696;-65
2021/09/23 17:26:33;;;;;;;3.50;2.07;;;17.70;77.50;;;;;;10580258;28;20198;-64
2021/09/23 17:31:55;;;;;;;4.23;1.83;;;17.80;77.60;;;;;;10579224;28;20207;-65
2021/09/23 17:37:17;;;;;;;2.77;1.90;;;17.80;77.60;;;;;;10580411;28;20198;-64
2021/09/23 17:42:42;;;;;;;3.57;2.10;;;17.80;77.60;;;;;;10578423;28;20226;-64
2021/09/23 17:48:05;;;;;;;2.23;1.67;;;17.80;77.60;;;;;;10579833;28;20575;-64
2021/09/23 17:53:27;;;;;;;3.77;2.40;;;17.80;77.60;;;;;;10578830;28;20699;-64
2021/09/23 17:58:51;;;;;;;3.23;2.27;;;17.70;77.50;;;;;;10580324;28;20193;-65
2021/09/23 18:04:13;;;;;;;2.13;1.60;;;17.80;77.60;;;;;;10578996;28;20226;-65
2021/09/23 18:09:35;;;;;;;3.07;1.60;;;17.80;77.60;;;;;;10578628;28;20211;-64
2021/09/23 18:14:59;;;;;;;2.03;1.50;;;17.70;77.60;;;;;;10576839;28;20206;-64
2021/09/23 18:20:21;;;;;;;2.80;1.90;;;17.80;77.70;;;;;;10574361;28;20237;-65
2021/09/23 18:25:43;;;;;;;2.83;1.70;;;17.80;77.70;;;;;;10575184;28;20222;-62
2021/09/23 18:31:07;;;;;;;3.47;2.03;;;17.80;77.70;;;;;;10575647;28;20688;-62
2021/09/23 18:36:31;;;;;;;2.77;1.60;;;17.80;77.70;;;;;;10578200;28;20218;-62
2021/09/23 18:41:53;;;;;;;2.40;1.63;;;17.80;77.70;;;;;;10574238;28;20221;-63
2021/09/23 18:47:16;;;;;;;3.93;1.90;;;17.80;77.70;;;;;;10576252;28;20202;-64
2021/09/23 18:52:38;;;;;;;2.60;1.70;;;17.80;77.70;;;;;;10574136;28;20233;-65
2021/09/23 18:58:02;;;;;;;4.40;1.50;;;17.80;77.70;;;;;;10576465;28;20563;-63
2021/09/23 19:03:25;;;;;;;2.83;1.60;;;17.80;77.80;;;;;;10574542;28;20667;-63
2021/09/23 19:08:47;;;;;;;2.97;1.73;;;17.80;77.80;;;;;;10575992;28;20187;-64
2021/09/23 19:14:10;;;;;;;3.77;1.60;;;17.70;77.70;;;;;;10574674;28;20191;-64
2021/09/23 19:19:33;;;;;;;3.27;1.73;;;17.80;77.80;;;;;;10569150;28;20219;-64
2021/09/23 19:24:55;;;;;;;3.90;1.70;;;17.70;77.70;;;;;;10574141;28;20203;-64
2021/09/23 19:30:18;;;;;;;2.73;1.70;;;17.70;77.80;;;;;;10572314;28;20207;-64
2021/09/23 19:35:42;;;;;;;3.33;1.80;;;17.70;77.70;;;;;;10573221;28;20180;-64
2021/09/23 19:41:04;;;;;;;3.80;1.90;;;17.70;77.80;;;;;;10563411;28;20218;-64
2021/09/23 19:46:26;;;;;;;4.17;1.80;;;17.70;77.80;;;;;;10566181;28;20186;-64
2021/09/23 19:51:49;;;;;;;3.23;1.73;;;17.80;77.80;;;;;;10567573;28;20207;-64
2021/09/23 19:57:12;;;;;;;3.07;1.83;;;17.70;77.80;;;;;;10573566;28;20819;-64
2021/09/23 20:02:34;;;;;;;2.50;1.80;;;17.70;77.80;;;;;;10572935;28;20215;-64
2021/09/23 20:07:57;;;;;;;2.33;1.30;;;17.70;77.80;;;;;;10572561;28;20195;-64
2021/09/23 20:13:20;;;;;;;1.93;1.53;;;17.70;77.80;;;;;;10572785;28;20584;-62
2021/09/23 20:18:42;;;;;;;3.03;1.70;;;17.80;77.90;;;;;;10570464;28;20198;-64
2021/09/23 20:24:06;;;;;;;2.83;1.60;;;17.70;77.80;;;;;;10572994;28;20587;-63
2021/09/23 20:29:28;;;;;;;4.10;1.57;;;17.70;77.90;;;;;;10573055;28;20218;-63
2021/09/23 20:34:51;;;;;;;2.33;1.70;;;17.70;77.90;;;;;;10574293;28;20194;-64
2021/09/23 20:40:16;;;;;;;2.80;1.67;;;17.80;77.90;;;;;;10568471;28;20211;-63
2021/09/23 20:45:38;;;;;;;1.90;1.50;;;17.70;77.90;;;;;;10535481;28;20214;-63
2021/09/23 20:51:01;;;;;;;2.07;1.50;;;17.70;77.90;;;;;;10567502;28;20588;-63
2021/09/23 20:56:24;;;;;;;2.87;1.60;;;17.70;77.90;;;;;;10580881;28;20195;-63
2021/09/23 21:01:46;;;;;;;2.50;1.60;;;17.70;77.90;;;;;;10579229;28;20954;-63
2021/09/23 21:07:08;;;;;;;2.17;1.47;;;17.70;77.90;;;;;;10580383;28;20203;-63
2021/09/23 21:12:32;;;;;;;3.43;1.90;;;17.70;77.90;;;;;;10489814;22;20595;-66
2021/09/23 21:17:54;;;;;;;3.50;1.93;;;17.70;77.90;;;;;;10444752;28;20204;-65
2021/09/23 21:23:16;;;;;;;2.03;1.30;;;17.70;77.90;;;;;;10486792;28;20212;-65
2021/09/23 21:28:40;;;;;;;2.83;1.60;;;17.70;77.90;;;;;;10496179;28;20216;-65
2021/09/23 21:34:02;;;;;;;3.63;1.70;;;17.70;77.90;;;;;;10496901;28;20197;-65
2021/09/23 21:39:24;;;;;;;2.37;1.40;;;17.70;77.90;;;;;;10457223;28;20209;-66
2021/09/23 21:44:47;;;;;;;2.63;1.50;;;17.70;77.90;;;;;;10458049;28;20235;-62
2021/09/23 21:50:12;;;;;;;2.40;1.30;;;17.70;78.50;;;;;;10497161;28;20219;-64
2021/09/23 21:55:34;;;;;;;1.87;1.40;;;17.70;77.90;;;;;;10490279;28;20193;-64
2021/09/23 22:00:58;;;;;;;3.67;1.40;;;17.70;77.90;;;;;;10495799;28;20216;-62
2021/09/23 22:06:20;;;;;;;2.50;1.57;;;17.70;77.90;;;;;;10493966;28;20590;-66
2021/09/23 22:11:42;;;;;;;2.83;2.07;;;17.70;77.90;;;;;;10495652;28;20228;-63
2021/09/23 22:17:06;;;;;;;2.57;1.40;;;17.70;77.90;;;;;;10495424;28;20205;-66
2021/09/23 22:22:29;;;;;;;3.00;1.67;;;17.70;77.90;;;;;;10495144;28;20226;-65
2021/09/23 22:27:52;;;;;;;3.27;1.70;;;17.70;77.90;;;;;;10496125;28;20208;-64
2021/09/23 22:33:15;;;;;;;3.03;1.50;;;17.70;77.90;;;;;;10494150;28;20200;-64
2021/09/23 22:38:37;;;;;;;3.80;1.60;;;17.70;77.90;;;;;;10537784;28;20215;-67
2021/09/23 22:44:00;;;;;;;4.27;1.63;;;17.70;77.90;;;;;;10538946;28;20227;-65
2021/09/23 22:49:24;;;;;;;3.53;1.50;;;17.70;78.50;;;;;;10499642;28;20216;-65
2021/09/23 22:54:46;;;;;;;2.60;1.57;;;17.70;77.90;;;;;;10492589;28;20192;-66
2021/09/23 23:00:11;;;;;;;2.70;1.47;;;17.70;77.80;;;;;;10486406;28;20691;-65
2021/09/23 23:05:34;;;;;;;3.23;1.50;;;17.70;77.80;;;;;;10491848;28;20232;-65
2021/09/23 23:10:56;;;;;;;2.70;1.63;;;17.70;77.90;;;;;;10451664;28;20217;-65
2021/09/23 23:16:18;;;;;;;3.43;1.60;;;17.70;77.80;;;;;;10454359;28;20576;-64
2021/09/23 23:21:42;;;;;;;1.43;1.10;;;17.70;77.80;;;;;;10474476;28;20216;-65
2021/09/23 23:27:04;;;;;;;4.63;1.47;;;17.70;77.80;;;;;;10485879;28;20220;-64
2021/09/23 23:32:26;;;;;;;3.00;1.50;;;17.70;77.80;;;;;;10483675;28;20641;-65
2021/09/23 23:37:50;;;;;;;2.47;1.50;;;17.70;77.80;;;;;;10483576;28;20195;-62
2021/09/23 23:43:12;;;;;;;3.37;1.43;;;17.70;77.80;;;;;;10490582;28;20219;-65
2021/09/23 23:48:34;;;;;;;3.27;1.57;;;17.70;77.80;;;;;;10477356;28;20223;-66
2021/09/23 23:53:58;;;;;;;2.57;1.50;;;17.70;77.80;;;;;;10478972;28;20196;-65
2021/09/23 23:59:20;;;;;;;3.43;1.50;;;17.70;77.80;;;;;;10468798;28;20943;-66
